Terminal Aerodrome Forecast
Issued by NWS

Home | Current Version | Previous Version | Text Only | Print | Product List | Glossary On
Versions: 1 2 3 4 5 6 7 8 9 10 11 12 13
000
FTUS45 KABQ 302326
TAFGUP
TAF
KGUP 302326Z 3100/3124 36008KT P6SM VCSH SCT090 BKN120
     FM310300 VRB06KT P6SM SCT120 SCT150
     FM310800 VRB06KT P6SM SCT150 SCT250
     FM311800 24013KT P6SM SCT080 SCT250=

USA.gov is the U.S. government's official web portal to all federal, state and local government web resources and services.